createdAt,value
2018-10-06T00:00:34.844Z,99.90
2018-10-06T00:03:03.535Z,99.90
2018-10-06T00:05:31.998Z,99.90
2018-10-06T00:08:00.562Z,99.90
2018-10-06T00:10:28.977Z,99.90
2018-10-06T00:12:57.566Z,99.90
2018-10-06T00:15:26.060Z,99.90
2018-10-06T00:17:54.619Z,99.90
2018-10-06T00:20:23.368Z,99.90
2018-10-06T00:22:51.888Z,99.90
2018-10-06T00:25:20.430Z,99.90
2018-10-06T00:27:48.968Z,99.90
2018-10-06T00:30:17.592Z,99.90
2018-10-06T00:32:46.208Z,99.90
2018-10-06T00:35:14.741Z,99.90
2018-10-06T00:37:43.361Z,99.90
2018-10-06T00:40:11.994Z,99.90
2018-10-06T00:42:40.480Z,99.90
2018-10-06T00:45:08.967Z,99.90
2018-10-06T00:47:37.432Z,99.90
2018-10-06T00:50:06.014Z,99.90
2018-10-06T00:52:34.551Z,99.90
2018-10-06T00:55:03.000Z,99.90
2018-10-06T00:57:31.554Z,99.90
2018-10-06T01:00:00.083Z,99.90
2018-10-06T01:02:28.586Z,99.90
2018-10-06T01:04:57.014Z,99.90
2018-10-06T01:07:25.519Z,99.90
2018-10-06T01:09:54.179Z,99.90
2018-10-06T01:12:22.672Z,99.90
2018-10-06T01:14:51.193Z,99.90
2018-10-06T01:17:19.688Z,99.90
2018-10-06T01:19:48.516Z,99.90
2018-10-06T01:22:16.982Z,99.90
2018-10-06T01:24:45.711Z,99.90
2018-10-06T01:27:14.358Z,99.90
2018-10-06T01:29:42.847Z,99.90
2018-10-06T01:32:11.295Z,99.90
2018-10-06T01:34:39.808Z,99.90
2018-10-06T01:37:08.354Z,99.90
2018-10-06T01:39:36.819Z,99.90
2018-10-06T01:42:05.437Z,99.90
2018-10-06T01:44:33.942Z,99.90
2018-10-06T01:47:02.388Z,99.90
2018-10-06T01:49:31.043Z,99.90
2018-10-06T01:51:59.510Z,99.90
2018-10-06T01:54:28.079Z,99.90
2018-10-06T01:56:56.639Z,99.90
2018-10-06T01:59:25.324Z,99.90
2018-10-06T02:01:53.787Z,99.90
2018-10-06T02:04:25.098Z,99.90
2018-10-06T02:06:54.811Z,99.90
2018-10-06T02:09:23.429Z,99.90
2018-10-06T02:11:52.444Z,99.90
2018-10-06T02:14:21.141Z,99.90
2018-10-06T02:16:49.735Z,99.90
2018-10-06T02:19:18.400Z,99.90
2018-10-06T02:21:46.935Z,99.90
2018-10-06T02:24:15.354Z,99.90
2018-10-06T02:26:43.868Z,99.90
2018-10-06T02:29:12.305Z,99.90
2018-10-06T02:31:40.761Z,99.90
2018-10-06T02:34:09.370Z,99.90
2018-10-06T02:36:37.874Z,99.90
2018-10-06T02:39:06.985Z,99.90
2018-10-06T02:41:35.505Z,99.90
2018-10-06T02:44:03.979Z,99.90
2018-10-06T02:46:32.645Z,99.90
2018-10-06T02:49:01.245Z,99.90
2018-10-06T02:51:29.848Z,99.90
2018-10-06T02:53:58.650Z,99.90
2018-10-06T02:56:27.251Z,99.90
2018-10-06T02:58:55.804Z,99.90
2018-10-06T03:01:24.314Z,99.90
2018-10-06T03:03:52.781Z,99.90
2018-10-06T03:06:21.277Z,99.90
2018-10-06T03:08:49.740Z,99.90
2018-10-06T03:11:18.412Z,99.90
2018-10-06T03:13:46.849Z,99.90
2018-10-06T03:16:15.420Z,99.90
2018-10-06T03:18:43.863Z,99.90
2018-10-06T03:21:12.533Z,99.90
2018-10-06T03:23:41.010Z,99.90
2018-10-06T03:26:11.402Z,99.90
2018-10-06T03:28:39.868Z,99.90
2018-10-06T03:31:08.374Z,99.90
2018-10-06T03:33:37.005Z,99.90
2018-10-06T03:36:06.252Z,99.90
2018-10-06T03:38:34.704Z,99.90
2018-10-06T03:41:03.224Z,99.90
2018-10-06T03:43:31.793Z,99.90
2018-10-06T03:46:00.542Z,99.90
2018-10-06T03:48:29.335Z,99.90
2018-10-06T03:50:58.270Z,99.90
2018-10-06T03:53:26.708Z,99.90
2018-10-06T03:55:55.341Z,99.90
2018-10-06T03:58:23.966Z,99.90
2018-10-06T04:00:52.634Z,99.90
2018-10-06T04:03:21.213Z,99.90
2018-10-06T04:05:49.922Z,99.90
2018-10-06T04:08:18.456Z,99.90
2018-10-06T04:10:47.133Z,99.90
2018-10-06T04:13:15.642Z,99.90
2018-10-06T04:15:44.302Z,99.90
2018-10-06T04:18:13.136Z,99.90
2018-10-06T04:20:41.671Z,99.90
2018-10-06T04:23:10.239Z,99.90
2018-10-06T04:25:38.980Z,99.90
2018-10-06T04:28:07.644Z,99.90
2018-10-06T04:30:42.977Z,99.90
2018-10-06T04:33:12.074Z,99.90
2018-10-06T04:35:41.001Z,99.90
2018-10-06T04:38:09.857Z,99.90
2018-10-06T04:40:38.741Z,99.90
2018-10-06T04:43:07.532Z,99.90
2018-10-06T04:45:36.277Z,99.90
2018-10-06T04:48:04.861Z,99.90
2018-10-06T04:50:33.347Z,99.90
2018-10-06T04:53:01.919Z,99.90
2018-10-06T04:55:30.803Z,99.90
2018-10-06T04:57:59.608Z,99.90
2018-10-06T05:00:28.233Z,99.90
2018-10-06T05:02:56.777Z,99.90
2018-10-06T05:05:25.321Z,99.90
2018-10-06T05:07:54.252Z,99.90
2018-10-06T05:10:22.905Z,99.90
2018-10-06T05:12:51.536Z,99.90
2018-10-06T05:15:19.992Z,99.90
2018-10-06T05:17:48.494Z,99.90
2018-10-06T05:20:17.150Z,99.90
2018-10-06T05:22:45.827Z,99.90
2018-10-06T05:25:14.467Z,99.90
2018-10-06T05:27:43.364Z,99.90
2018-10-06T05:30:11.929Z,99.90
2018-10-06T05:32:40.669Z,99.90
2018-10-06T05:35:09.812Z,99.90
2018-10-06T05:37:38.561Z,99.90
2018-10-06T05:40:07.823Z,99.90
2018-10-06T05:42:36.596Z,99.90
2018-10-06T05:45:05.898Z,99.90
2018-10-06T05:47:34.678Z,99.90
2018-10-06T05:50:03.152Z,99.90
2018-10-06T05:52:32.089Z,99.90
2018-10-06T05:55:00.905Z,99.90
2018-10-06T05:57:29.703Z,99.90
2018-10-06T05:59:58.778Z,99.90
2018-10-06T06:02:27.571Z,99.90
2018-10-06T06:04:56.589Z,99.90
2018-10-06T06:07:25.592Z,99.90
2018-10-06T06:09:54.297Z,99.90
2018-10-06T06:12:22.958Z,99.90
2018-10-06T06:14:51.629Z,99.90
2018-10-06T06:17:20.675Z,99.90
2018-10-06T06:19:49.517Z,99.90
2018-10-06T06:22:17.971Z,99.90
2018-10-06T06:24:46.604Z,99.90
2018-10-06T06:27:15.194Z,99.90
2018-10-06T06:29:43.783Z,99.90
2018-10-06T06:32:12.325Z,99.90
2018-10-06T06:34:41.121Z,99.90
2018-10-06T06:37:09.656Z,99.90
2018-10-06T06:39:38.300Z,99.90
2018-10-06T06:42:07.216Z,99.90
2018-10-06T06:44:35.889Z,99.90
2018-10-06T06:47:04.523Z,99.90
2018-10-06T06:49:33.117Z,99.90
2018-10-06T06:52:01.559Z,99.90
2018-10-06T06:54:30.318Z,99.90
2018-10-06T06:56:58.965Z,99.90
2018-10-06T06:59:27.874Z,99.90
2018-10-06T07:01:56.888Z,99.90
2018-10-06T07:04:25.402Z,99.40
2018-10-06T07:06:54.133Z,95.20
2018-10-06T07:09:22.793Z,89.50
2018-10-06T07:11:51.681Z,77.70
2018-10-06T07:14:20.485Z,69.10
2018-10-06T07:16:49.239Z,62.30
2018-10-06T07:19:17.759Z,58.50
2018-10-06T07:21:46.465Z,56.30
2018-10-06T07:24:14.905Z,54.70
2018-10-06T07:26:43.400Z,53.50
2018-10-06T07:29:11.899Z,53.20
2018-10-06T07:31:40.371Z,53.70
2018-10-06T07:34:08.921Z,52.20
2018-10-06T07:36:37.483Z,51.80
2018-10-06T07:39:07.220Z,51.00
2018-10-06T07:41:36.060Z,50.40
2018-10-06T07:44:04.634Z,49.60
2018-10-06T07:46:33.271Z,48.60
2018-10-06T07:49:02.069Z,48.50
2018-10-06T07:51:30.921Z,47.50
2018-10-06T07:53:59.762Z,47.30
2018-10-06T07:56:28.339Z,46.60
2018-10-06T07:58:57.274Z,46.90
2018-10-06T08:01:26.130Z,47.10
2018-10-06T08:03:55.077Z,46.10
2018-10-06T08:06:23.623Z,44.90
2018-10-06T08:08:52.154Z,44.70
2018-10-06T08:11:20.841Z,43.80
2018-10-06T08:13:49.370Z,42.40
2018-10-06T08:16:18.026Z,41.80
2018-10-06T08:18:46.502Z,41.60
2018-10-06T08:21:15.137Z,40.10
2018-10-06T08:23:43.785Z,40.30
2018-10-06T08:26:12.270Z,39.00
2018-10-06T08:28:41.044Z,39.10
2018-10-06T08:31:09.740Z,39.50
2018-10-06T08:33:38.406Z,39.80
2018-10-06T08:36:07.316Z,39.30
2018-10-06T08:38:35.907Z,39.30
2018-10-06T08:41:05.162Z,38.50
2018-10-06T08:43:33.658Z,38.10
2018-10-06T08:46:02.480Z,37.90
2018-10-06T08:48:31.210Z,37.60
2018-10-06T08:50:59.959Z,37.50
2018-10-06T08:53:28.825Z,37.00
2018-10-06T08:55:57.805Z,36.60
2018-10-06T08:58:26.577Z,36.30
2018-10-06T09:00:55.384Z,36.60
2018-10-06T09:03:24.077Z,36.10
2018-10-06T09:05:52.593Z,36.50
2018-10-06T09:08:21.229Z,37.00
2018-10-06T09:10:50.042Z,36.30
2018-10-06T09:13:18.620Z,37.00
2018-10-06T09:15:47.082Z,37.30
2018-10-06T09:18:15.863Z,36.30
2018-10-06T09:20:44.313Z,35.70
2018-10-06T09:23:13.029Z,35.60
2018-10-06T09:25:41.740Z,35.70
2018-10-06T09:28:10.655Z,36.00
2018-10-06T09:30:40.350Z,35.10
2018-10-06T09:33:09.100Z,35.20
2018-10-06T09:35:37.625Z,35.10
2018-10-06T09:38:06.513Z,34.90
2018-10-06T09:40:35.255Z,34.00
2018-10-06T09:43:04.039Z,33.40
2018-10-06T09:45:32.743Z,33.20
2018-10-06T09:48:01.384Z,33.00
2018-10-06T09:50:30.181Z,32.80
2018-10-06T09:52:58.715Z,33.30
2018-10-06T09:55:27.863Z,32.90
2018-10-06T09:57:56.433Z,32.70
2018-10-06T10:03:23.589Z,31.70
2018-10-06T10:05:54.002Z,31.20
2018-10-06T10:08:25.817Z,31.90
2018-10-06T10:10:56.298Z,31.50
2018-10-06T10:13:24.973Z,31.50
2018-10-06T10:15:53.617Z,31.30
2018-10-06T10:18:22.585Z,31.00
2018-10-06T10:20:51.350Z,30.50
2018-10-06T10:23:20.346Z,30.40
2018-10-06T10:25:49.105Z,31.00
2018-10-06T10:28:17.742Z,31.90
2018-10-06T10:30:46.563Z,32.70
2018-10-06T10:33:15.530Z,32.80
2018-10-06T10:35:44.250Z,33.60
2018-10-06T10:38:12.689Z,34.00
2018-10-06T10:40:41.820Z,34.40
2018-10-06T10:43:10.310Z,34.80
2018-10-06T10:45:38.872Z,35.50
2018-10-06T10:48:07.924Z,36.60
2018-10-06T10:50:36.540Z,37.50
2018-10-06T10:53:05.071Z,38.30
2018-10-06T10:55:33.944Z,39.50
2018-10-06T10:58:02.766Z,40.50
2018-10-06T11:00:31.679Z,41.20
2018-10-06T11:03:00.306Z,42.00
2018-10-06T11:05:29.177Z,42.50
2018-10-06T11:07:58.040Z,43.20
2018-10-06T11:10:26.830Z,43.40
2018-10-06T11:12:55.892Z,43.40
2018-10-06T11:15:24.616Z,43.80
2018-10-06T11:17:53.630Z,43.70
2018-10-06T11:20:22.152Z,43.70
2018-10-06T11:22:50.936Z,44.10
2018-10-06T11:25:19.616Z,44.10
2018-10-06T11:27:48.449Z,44.00
2018-10-06T11:30:17.052Z,44.40
2018-10-06T11:32:46.058Z,44.50
2018-10-06T11:35:14.673Z,45.00
2018-10-06T11:37:43.452Z,44.50
2018-10-06T11:40:12.314Z,44.50
2018-10-06T11:42:41.860Z,44.80
2018-10-06T11:45:10.833Z,44.80
2018-10-06T11:47:39.699Z,45.10
2018-10-06T11:50:08.360Z,45.40
2018-10-06T11:52:37.212Z,45.10
2018-10-06T11:55:06.261Z,45.10
2018-10-06T11:57:34.995Z,45.30
2018-10-06T12:00:03.981Z,45.60
2018-10-06T12:02:32.334Z,45.60
2018-10-06T12:05:00.994Z,45.60
2018-10-06T12:07:30.142Z,45.10
2018-10-06T12:09:59.520Z,45.60
2018-10-06T12:12:28.365Z,45.50
2018-10-06T12:14:57.118Z,45.50
2018-10-06T12:17:25.887Z,45.60
2018-10-06T12:19:54.524Z,45.50
2018-10-06T12:22:23.267Z,45.60
2018-10-06T12:24:51.737Z,45.50
2018-10-06T12:27:20.489Z,44.70
2018-10-06T12:29:49.360Z,44.40
2018-10-06T12:32:18.026Z,44.50
2018-10-06T12:34:46.683Z,44.40
2018-10-06T12:37:15.413Z,44.80
2018-10-06T12:39:44.454Z,45.00
2018-10-06T12:42:13.106Z,44.70
2018-10-06T12:44:41.666Z,44.30
2018-10-06T12:47:10.361Z,44.10
2018-10-06T12:49:39.251Z,44.10
2018-10-06T12:52:07.820Z,44.00
2018-10-06T12:54:36.412Z,44.10
2018-10-06T12:57:05.421Z,44.00
2018-10-06T12:59:34.030Z,43.20
2018-10-06T13:02:02.670Z,43.30
2018-10-06T13:04:31.315Z,42.30
2018-10-06T13:07:00.433Z,41.90
2018-10-06T13:09:30.320Z,42.20
2018-10-06T13:11:59.085Z,42.40
2018-10-06T13:14:27.635Z,42.60
2018-10-06T13:16:56.647Z,42.70
2018-10-06T13:19:25.246Z,42.70
2018-10-06T13:21:53.729Z,42.50
2018-10-06T13:24:22.672Z,42.10
2018-10-06T13:26:51.427Z,41.90
2018-10-06T13:29:20.232Z,41.90
2018-10-06T13:31:48.949Z,41.80
2018-10-06T13:34:17.502Z,41.70
2018-10-06T13:36:46.136Z,41.50
2018-10-06T13:39:15.303Z,41.40
2018-10-06T13:41:44.209Z,41.50
2018-10-06T13:44:12.982Z,41.40
2018-10-06T13:46:41.893Z,41.00
2018-10-06T13:49:10.493Z,40.60
2018-10-06T13:51:39.185Z,40.30
2018-10-06T13:54:08.001Z,40.00
2018-10-06T13:56:36.559Z,39.80
2018-10-06T13:59:05.296Z,39.40
2018-10-06T14:01:33.876Z,39.10
2018-10-06T14:04:02.504Z,39.50
2018-10-06T14:06:31.108Z,39.30
2018-10-06T14:08:59.670Z,39.40
2018-10-06T14:11:28.176Z,39.60
2018-10-06T14:13:56.824Z,39.90
2018-10-06T14:16:25.345Z,39.80
2018-10-06T14:18:54.112Z,40.20
2018-10-06T14:21:22.686Z,39.70
2018-10-06T14:23:51.618Z,39.90
2018-10-06T14:26:20.403Z,39.50
2018-10-06T14:28:55.868Z,39.50
2018-10-06T14:31:24.539Z,39.90
2018-10-06T14:33:53.184Z,40.00
2018-10-06T14:36:22.059Z,40.30
2018-10-06T14:38:50.586Z,40.20
2018-10-06T14:41:20.102Z,40.10
2018-10-06T14:43:48.795Z,40.30
2018-10-06T14:46:17.607Z,40.60
2018-10-06T14:48:46.214Z,40.70
2018-10-06T14:51:15.059Z,40.90
2018-10-06T14:53:43.746Z,41.10
2018-10-06T14:56:12.348Z,41.30
2018-10-06T14:58:40.772Z,41.30
2018-10-06T15:01:09.551Z,41.50
2018-10-06T15:03:38.058Z,41.60
2018-10-06T15:06:06.604Z,41.80
2018-10-06T15:08:35.113Z,42.00
2018-10-06T15:11:03.798Z,42.30
2018-10-06T15:13:32.322Z,42.50
2018-10-06T15:16:00.999Z,42.30
2018-10-06T15:18:29.606Z,42.40
2018-10-06T15:20:58.280Z,42.70
2018-10-06T15:23:26.796Z,42.60
2018-10-06T15:25:55.496Z,42.60
2018-10-06T15:28:24.094Z,42.80
2018-10-06T15:30:52.677Z,42.80
2018-10-06T15:33:21.126Z,43.10
2018-10-06T15:35:49.717Z,42.90
2018-10-06T15:38:18.159Z,43.00
2018-10-06T15:40:46.841Z,42.90
2018-10-06T15:43:15.317Z,42.50
2018-10-06T15:45:43.810Z,42.30
2018-10-06T15:48:12.540Z,42.40
2018-10-06T15:50:41.216Z,42.50
2018-10-06T15:53:09.800Z,42.70
2018-10-06T15:55:38.463Z,42.80
2018-10-06T15:58:07.217Z,43.60
2018-10-06T16:00:35.807Z,43.40
2018-10-06T16:03:04.375Z,43.80
2018-10-06T16:05:32.937Z,43.80
2018-10-06T16:08:01.596Z,44.00
2018-10-06T16:10:30.228Z,44.20
2018-10-06T16:12:58.987Z,44.40
2018-10-06T16:15:27.504Z,44.50
2018-10-06T16:17:56.224Z,44.80
2018-10-06T16:20:24.668Z,44.70
2018-10-06T16:22:53.653Z,44.90
2018-10-06T16:25:22.121Z,45.00
2018-10-06T16:27:50.739Z,45.20
2018-10-06T16:30:19.315Z,45.40
2018-10-06T16:32:48.293Z,45.50
2018-10-06T16:35:16.751Z,45.50
2018-10-06T16:37:45.289Z,45.80
2018-10-06T16:40:13.948Z,45.90
2018-10-06T16:42:42.486Z,46.20
2018-10-06T16:45:11.166Z,46.30
2018-10-06T16:47:39.724Z,46.40
2018-10-06T16:50:08.487Z,46.70
2018-10-06T16:52:37.088Z,47.00
2018-10-06T16:55:05.749Z,47.20
2018-10-06T16:57:34.597Z,47.60
2018-10-06T17:00:03.593Z,47.90
2018-10-06T17:02:32.921Z,48.20
2018-10-06T17:05:02.629Z,48.70
2018-10-06T17:07:32.233Z,48.80
2018-10-06T17:10:01.123Z,48.90
2018-10-06T17:12:30.450Z,49.20
2018-10-06T17:14:59.780Z,49.60
2018-10-06T17:17:29.406Z,50.20
2018-10-06T17:19:59.095Z,50.50
2018-10-06T17:22:28.792Z,50.90
2018-10-06T17:24:58.376Z,51.50
2018-10-06T17:27:27.630Z,52.10
2018-10-06T17:29:56.786Z,52.30
2018-10-06T17:32:26.157Z,52.60
2018-10-06T17:34:55.487Z,53.00
2018-10-06T17:37:24.881Z,53.20
2018-10-06T17:39:54.522Z,53.30
2018-10-06T17:42:23.512Z,53.60
2018-10-06T17:44:52.813Z,53.80
2018-10-06T17:47:21.287Z,54.20
2018-10-06T17:49:49.888Z,54.50
2018-10-06T17:52:18.351Z,54.70
2018-10-06T17:54:46.836Z,54.80
2018-10-06T17:57:15.567Z,55.00
2018-10-06T17:59:44.056Z,55.30
2018-10-06T18:02:12.542Z,56.10
2018-10-06T18:04:41.334Z,55.50
2018-10-06T18:07:09.730Z,55.50
2018-10-06T18:09:38.264Z,55.70
2018-10-06T18:12:06.778Z,55.80
2018-10-06T18:14:35.356Z,55.90
2018-10-06T18:17:03.829Z,56.20
2018-10-06T18:19:32.287Z,56.20
2018-10-06T18:22:01.023Z,56.40
2018-10-06T18:24:29.522Z,56.50
2018-10-06T18:26:58.330Z,56.80
2018-10-06T18:29:27.038Z,56.90
2018-10-06T18:31:55.814Z,57.00
2018-10-06T18:34:24.267Z,56.80
2018-10-06T18:36:52.950Z,58.10
2018-10-06T18:39:21.367Z,57.70
2018-10-06T18:41:50.057Z,58.60
2018-10-06T18:44:18.560Z,58.60
2018-10-06T18:46:47.407Z,58.90
2018-10-06T18:49:16.044Z,59.50
2018-10-06T18:51:44.781Z,60.00
2018-10-06T18:54:13.266Z,60.80
2018-10-06T18:56:41.891Z,61.60
2018-10-06T18:59:10.350Z,62.30
2018-10-06T19:01:39.013Z,62.80
2018-10-06T19:04:07.849Z,63.40
2018-10-06T19:06:36.464Z,63.80
2018-10-06T19:09:06.637Z,64.20
2018-10-06T19:11:35.924Z,64.60
2018-10-06T19:14:04.869Z,65.30
2018-10-06T19:16:33.329Z,65.60
2018-10-06T19:19:02.070Z,66.80
2018-10-06T19:21:30.558Z,67.10
2018-10-06T19:23:59.197Z,67.80
2018-10-06T19:26:27.680Z,68.50
2018-10-06T19:28:56.342Z,70.00
2018-10-06T19:31:24.780Z,71.60
2018-10-06T19:33:53.288Z,72.70
2018-10-06T19:36:21.799Z,73.80
2018-10-06T19:38:50.493Z,74.90
2018-10-06T19:41:18.951Z,75.70
2018-10-06T19:43:47.805Z,77.00
2018-10-06T19:46:16.297Z,78.10
2018-10-06T19:48:44.902Z,80.80
2018-10-06T19:51:13.337Z,81.70
2018-10-06T19:53:41.873Z,83.50
2018-10-06T19:56:10.719Z,84.90
2018-10-06T19:58:39.293Z,86.00
2018-10-06T20:01:07.770Z,87.70
2018-10-06T20:03:36.292Z,88.80
2018-10-06T20:06:04.777Z,89.50
2018-10-06T20:08:35.437Z,90.10
2018-10-06T20:11:04.007Z,90.60
2018-10-06T20:13:32.704Z,91.30
2018-10-06T20:16:01.176Z,91.90
2018-10-06T20:18:29.853Z,92.20
2018-10-06T20:20:58.321Z,92.30
2018-10-06T20:23:26.894Z,92.50
2018-10-06T20:25:55.381Z,92.60
2018-10-06T20:28:30.719Z,92.70
2018-10-06T20:30:59.181Z,92.90
2018-10-06T20:33:27.749Z,93.10
2018-10-06T20:35:56.611Z,93.30
2018-10-06T20:38:25.088Z,93.70
2018-10-06T20:40:54.504Z,93.80
2018-10-06T20:43:23.029Z,94.30
2018-10-06T20:45:51.771Z,94.50
2018-10-06T20:48:20.368Z,95.00
2018-10-06T20:50:48.885Z,95.40
2018-10-06T20:53:17.817Z,95.50
2018-10-06T20:55:46.495Z,95.60
2018-10-06T20:58:14.927Z,95.80
2018-10-06T21:00:43.417Z,96.00
2018-10-06T21:03:11.924Z,96.20
2018-10-06T21:05:40.442Z,96.50
2018-10-06T21:08:08.951Z,96.70
2018-10-06T21:10:37.425Z,96.90
2018-10-06T21:13:06.226Z,97.00
2018-10-06T21:15:34.841Z,97.30
2018-10-06T21:18:03.719Z,97.60
2018-10-06T21:20:33.199Z,98.10
2018-10-06T21:23:01.761Z,97.90
2018-10-06T21:25:30.353Z,98.40
2018-10-06T21:27:58.937Z,98.70
2018-10-06T21:30:27.704Z,99.00
2018-10-06T21:32:56.215Z,99.30
2018-10-06T21:35:24.871Z,99.60
2018-10-06T21:37:53.418Z,99.60
2018-10-06T21:40:22.029Z,99.70
2018-10-06T21:42:50.553Z,99.80
2018-10-06T21:45:19.248Z,99.80
2018-10-06T21:47:47.684Z,99.90
2018-10-06T21:50:16.202Z,99.90
2018-10-06T21:52:44.877Z,99.90
2018-10-06T21:55:13.561Z,99.90
2018-10-06T21:57:42.057Z,99.90
2018-10-06T22:00:10.713Z,99.90
2018-10-06T22:02:39.190Z,99.90
2018-10-06T22:05:07.934Z,99.90
2018-10-06T22:07:36.399Z,99.90
2018-10-06T22:10:05.002Z,99.90
2018-10-06T22:12:33.609Z,99.90
2018-10-06T22:15:02.668Z,99.90
2018-10-06T22:17:31.093Z,99.90
2018-10-06T22:19:59.721Z,99.90
2018-10-06T22:22:28.276Z,99.90
2018-10-06T22:24:56.750Z,99.90
2018-10-06T22:27:25.200Z,99.90
2018-10-06T22:29:53.745Z,99.90
2018-10-06T22:32:22.252Z,99.90
2018-10-06T22:34:50.840Z,99.90
2018-10-06T22:37:19.480Z,99.90
2018-10-06T22:39:48.247Z,99.90
2018-10-06T22:42:16.776Z,99.90
2018-10-06T22:44:46.932Z,99.90
2018-10-06T22:47:15.446Z,99.90
2018-10-06T22:49:43.937Z,99.90
2018-10-06T22:52:12.503Z,99.90
2018-10-06T22:54:41.094Z,99.90
2018-10-06T22:57:09.649Z,99.90
2018-10-06T22:59:38.109Z,99.90
2018-10-06T23:02:06.732Z,99.90
2018-10-06T23:04:35.265Z,99.90
2018-10-06T23:07:03.798Z,99.90
2018-10-06T23:09:32.479Z,99.90
2018-10-06T23:12:01.301Z,99.90
2018-10-06T23:14:29.984Z,99.90
2018-10-06T23:16:58.412Z,99.90
2018-10-06T23:19:26.928Z,99.90
2018-10-06T23:21:55.351Z,99.90
2018-10-06T23:24:23.961Z,99.90
2018-10-06T23:26:52.498Z,99.90
2018-10-06T23:29:21.112Z,99.90
2018-10-06T23:31:49.584Z,99.90
2018-10-06T23:34:18.017Z,99.70
2018-10-06T23:36:46.526Z,99.40
2018-10-06T23:39:15.285Z,99.10
2018-10-06T23:41:43.760Z,98.90
2018-10-06T23:44:12.481Z,98.80
2018-10-06T23:46:41.029Z,98.70
2018-10-06T23:49:10.172Z,98.50
2018-10-06T23:51:38.783Z,98.40
2018-10-06T23:54:07.370Z,98.40
2018-10-06T23:56:35.877Z,98.30
2018-10-06T23:59:04.579Z,98.40
